KHYS

Hays Regional Airport

Hays, Kansas, USA
METAR KHYS 221456Z AUTO 35005KT 10SM CLR 11/06 A3009 RMK AO2 SLP188 T01060056 53016
Observed Flight Rules
Oct-22 @ 14:56 UTC (5 minutes ago) Visual Flight Rules
Wind Visibility Clouds
350° at 5 knots 10 miles
  • Clear skies
Temperatures Readings
Current 11°C / 52°F
Dewpoint 6°C / 43°F
Humidity 72%
Altimeter 30.09" Hg
Pressure 1018.8 hPa
Elevation 609
METAR KHYS 221456Z AUTO 35005KT 10SM CLR 11/06 A3009 RMK AO2 SLP188 T01060056 53016
Observed Flight Rules
Oct-22 @ 14:56 UTC
(5 minutes ago)
VFR
Wind Visibility
350° at 5 knots 10 miles
Clouds
  • Clear skies
Temperature Dewpoint
11°C / 52°F 6°C / 43°F
Humidity Altimeter Pressure
72% 30.09" Hg 1018.8 hPa